Modoc, SC (29838)

9:51 AM EST on December 06, 2016 (GMT -0500)
Sumter Nat'l Forest | | Change Station

Elev 400 ft 33.82 °N, 82.16 °W | Updated 14 seconds ago

Light Rain
Light Rain
51.6 °F
Feels Like 51.6 °F
N
0.0
Wind Variable Wind from ENE
Gusts 3.1 mph

Today
High -- | Low -- °F
--% Chance of Precip.
Yesterday
High -- | Low -- °F
Precip. -- in
Pressure 29.75 in
Visibility 10.0 miles
Clouds Overcast 300 ft
Dew Point 50 °F
Humidity 95%
Rainfall 0.16 in
Snow Depth Not available.
7:20 AM 5:20 PM
Waxing Crescent, 42% visible
METAR KDNL 061353Z AUTO 09007KT 10SM -RA OVC003 13/11 A2975 RMK AO2 SLP072 P0001 T01280111
Pressure 29.75 in
Visibility 10.0 miles
Clouds Overcast 300 ft
Dew Point 50 °F
Humidity 95%
Rainfall 0.16 in
Snow Depth Not available.
7:20 AM 5:20 PM
Waxing Crescent, 42% visible
METAR KDNL 061353Z AUTO 09007KT 10SM -RA OVC003 13/11 A2975 RMK AO2 SLP072 P0001 T01280111

10-Day Weather Forecast

Almanac

Astronomy

Dec. 06, 2016 Rise Set
Actual Time
Civil Twilight
Nautical Twilight
Astronomical Twilight
Moon
Length of Visible Light
Length of Day
Tomorrow will be .
, % of the Moon is Illuminated

Today's Extremes

State Highs State Lows

Community

WunderPhotos

Upload Photos

1,955,950 photos uploaded!

WunderBlog® & News

Nearby

Air Quality

  Air Quality AQ Index Pollutant
Not available.

Snow Depth

Station Depth Elevation

Earthquake Activity

City Distance Mag. Time & Date
Minimum magnitude displayed is 2.5.

Coastal Water Temperatures

Place Temperature

Stations

Nearby Weather Stations

Station Location Temp. Windchill Dew Point Humidity Wind Precip. Elev Updated Type
                   

Watches & Warnings

There are currently no watches in effect.